PWSweather.com
Personal Weather Stations
Station Observations
WATERF01
WaterfordIE

WaterfordIE

Lat: 52.2412507, Lon: -7.1414691

Elevation: 65

Station Type: Davis Vantage Vue

www.waterfordweather.com

High Low Average
Temperature 57.8°F14.3°C 42.2°F5.7°C 50.2°F10.1°C
Dew Point 55.8°F13.2°C 41.7°F5.4°C 48.2°F9.0°C
Winds 13.8 mph 22.2 kmh Calm Calm 5.0 mph SW8.0 kmh SW
Wind Gusts 26.5 mph42.6 kmh -- 9.0 mph14.5 kmh
Humidity 99% 75% 93%
Pressure 29.86 in1011.2 mb 29.64 in1003.7 mb -
Precipitation 0.17 in4.3 mm - -
Hour Temp Dew Point Humidity Winds Wind Gusts Pressure Precip Precip Rate Daily Precip Total
12:00 AM 42.2°F5.7°C 41.7°F5.4°C 98% Calm Calm -- 29.84 in1010.5 mb - 0.00 in0.0 mm 0.00 in0.0 mm
12:10 AM 42.2°F5.7°C 41.7°F5.4°C 98% 2.3 mph SE3.7 kmh SE 2.3 mph3.7 kmh 29.85 in1010.8 mb - 0.00 in0.0 mm 0.00 in0.0 mm
12:20 AM 42.2°F5.7°C 41.7°F5.4°C 98% Calm Calm -- 29.86 in1011.2 mb - 0.00 in0.0 mm 0.00 in0.0 mm
12:30 AM 42.3°F5.7°C 41.8°F5.4°C 98% Calm Calm -- 29.85 in1010.8 mb - 0.01 in0.3 mm 0.01 in0.3 mm
12:40 AM 42.4°F5.8°C 41.9°F5.5°C 98% Calm Calm 2.3 mph3.7 kmh 29.85 in1010.8 mb - 0.00 in0.0 mm 0.01 in0.3 mm
12:50 AM 42.5°F5.8°C 42.2°F5.7°C 99% Calm Calm -- 29.84 in1010.5 mb - 0.00 in0.0 mm 0.01 in0.3 mm
01:00 AM 42.5°F5.8°C 42.3°F5.7°C 99% Calm Calm -- 29.84 in1010.5 mb - 0.00 in0.0 mm 0.01 in0.3 mm
01:10 AM 43.1°F6.2°C 42.8°F6.0°C 99% Calm Calm -- 29.86 in1011.2 mb - 0.00 in0.0 mm 0.01 in0.3 mm
01:20 AM 43.5°F6.4°C 43.2°F6.2°C 99% Calm Calm -- 29.84 in1010.5 mb - 0.00 in0.0 mm 0.01 in0.3 mm
01:30 AM 43.6°F6.4°C 43.3°F6.3°C 99% Calm Calm -- 29.85 in1010.8 mb - 0.00 in0.0 mm 0.01 in0.3 mm
01:40 AM 43.8°F6.6°C 43.5°F6.4°C 99% Calm Calm -- 29.84 in1010.5 mb - 0.00 in0.0 mm 0.01 in0.3 mm
01:50 AM 44.0°F6.7°C 43.7°F6.5°C 99% 2.3 mph SE3.7 kmh SE 2.3 mph3.7 kmh 29.84 in1010.5 mb - 0.00 in0.0 mm 0.01 in0.3 mm
02:00 AM 44.1°F6.7°C 43.8°F6.6°C 99% Calm Calm 6.9 mph11.1 kmh 29.84 in1010.5 mb - 0.01 in0.3 mm 0.02 in0.5 mm
02:10 AM 44.3°F6.8°C 44.0°F6.7°C 99% Calm Calm -- 29.83 in1010.2 mb - 0.00 in0.0 mm 0.02 in0.5 mm
02:20 AM 44.8°F7.1°C 44.5°F6.9°C 99% 3.5 mph S5.6 kmh S 5.8 mph9.3 kmh 29.83 in1010.2 mb - 0.00 in0.0 mm 0.02 in0.5 mm
02:30 AM 45.3°F7.4°C 45.0°F7.2°C 99% 3.5 mph SW5.6 kmh SW 8.1 mph13.0 kmh 29.82 in1009.8 mb - 0.01 in0.3 mm 0.03 in0.8 mm
02:40 AM 45.4°F7.4°C 45.1°F7.3°C 99% 3.5 mph SW5.6 kmh SW 5.8 mph9.3 kmh 29.82 in1009.8 mb - 0.00 in0.0 mm 0.03 in0.8 mm
02:50 AM 45.3°F7.4°C 45.0°F7.2°C 99% 4.6 mph SW7.4 kmh SW 8.1 mph13.0 kmh 29.82 in1009.8 mb - 0.00 in0.0 mm 0.03 in0.8 mm
03:00 AM 45.3°F7.4°C 45.1°F7.3°C 99% 3.5 mph SW5.6 kmh SW 6.9 mph11.1 kmh 29.81 in1009.5 mb - 0.00 in0.0 mm 0.03 in0.8 mm
03:10 AM 45.4°F7.4°C 45.1°F7.3°C 99% 3.5 mph SSW5.6 kmh SSW 5.8 mph9.3 kmh 29.81 in1009.5 mb - 0.00 in0.0 mm 0.03 in0.8 mm
03:20 AM 45.4°F7.4°C 45.1°F7.3°C 99% 4.6 mph SW7.4 kmh SW 5.8 mph9.3 kmh 29.80 in1009.1 mb - 0.00 in0.0 mm 0.03 in0.8 mm
03:30 AM 45.5°F7.5°C 45.2°F7.3°C 99% 5.8 mph SSW9.3 kmh SSW 8.1 mph13.0 kmh 29.80 in1009.1 mb - 0.00 in0.0 mm 0.03 in0.8 mm
03:40 AM 45.7°F7.6°C 45.4°F7.4°C 99% 6.9 mph S11.1 kmh S 11.5 mph18.5 kmh 29.79 in1008.8 mb - 0.00 in0.0 mm 0.03 in0.8 mm
03:50 AM 45.8°F7.7°C 45.5°F7.5°C 99% 6.9 mph S11.1 kmh S 13.8 mph22.2 kmh 29.78 in1008.5 mb - 0.00 in0.0 mm 0.03 in0.8 mm
04:00 AM 46.0°F7.8°C 45.7°F7.6°C 99% 9.2 mph S14.8 kmh S 13.8 mph22.2 kmh 29.78 in1008.5 mb - 0.01 in0.3 mm 0.04 in1.0 mm
04:10 AM 46.1°F7.8°C 45.8°F7.7°C 99% 8.1 mph S13.0 kmh S 11.5 mph18.5 kmh 29.78 in1008.5 mb - 0.00 in0.0 mm 0.04 in1.0 mm
04:20 AM 46.2°F7.9°C 45.9°F7.7°C 99% 8.1 mph S13.0 kmh S 11.5 mph18.5 kmh 29.77 in1008.1 mb - 0.00 in0.0 mm 0.04 in1.0 mm
04:30 AM 46.3°F7.9°C 46.0°F7.8°C 99% 9.2 mph SSW14.8 kmh SSW 12.7 mph20.4 kmh 29.77 in1008.1 mb - 0.01 in0.3 mm 0.05 in1.3 mm
04:40 AM 46.4°F8.0°C 46.1°F7.8°C 99% 6.9 mph S11.1 kmh S 9.2 mph14.8 kmh 29.76 in1007.8 mb - 0.00 in0.0 mm 0.05 in1.3 mm
04:50 AM 46.4°F8.0°C 46.1°F7.8°C 99% 5.8 mph S9.3 kmh S 8.1 mph13.0 kmh 29.75 in1007.5 mb - 0.00 in0.0 mm 0.05 in1.3 mm
05:00 AM 46.5°F8.1°C 46.2°F7.9°C 99% 5.8 mph S9.3 kmh S 8.1 mph13.0 kmh 29.74 in1007.1 mb - 0.00 in0.0 mm 0.05 in1.3 mm
05:10 AM 46.6°F8.1°C 46.3°F7.9°C 99% 3.5 mph S5.6 kmh S 5.8 mph9.3 kmh 29.74 in1007.1 mb - 0.01 in0.3 mm 0.06 in1.5 mm
05:20 AM 47.0°F8.3°C 46.7°F8.2°C 99% Calm Calm -- 29.73 in1006.8 mb - 0.00 in0.0 mm 0.06 in1.5 mm
05:30 AM 47.2°F8.4°C 46.9°F8.3°C 99% Calm Calm -- 29.73 in1006.8 mb - 0.00 in0.0 mm 0.06 in1.5 mm
05:40 AM 47.5°F8.6°C 47.2°F8.4°C 99% Calm Calm -- 29.73 in1006.8 mb - 0.01 in0.3 mm 0.07 in1.8 mm
05:50 AM 47.6°F8.7°C 47.3°F8.5°C 99% 1.2 mph SW1.9 kmh SW 5.8 mph9.3 kmh 29.72 in1006.4 mb - 0.02 in0.5 mm 0.09 in2.3 mm
06:00 AM 47.9°F8.8°C 47.6°F8.7°C 99% 2.3 mph SSW3.7 kmh SSW 4.6 mph7.4 kmh 29.72 in1006.4 mb - 0.01 in0.3 mm 0.10 in2.5 mm
06:10 AM 48.2°F9.0°C 47.9°F8.8°C 99% 2.3 mph WSW3.7 kmh WSW 4.6 mph7.4 kmh 29.72 in1006.4 mb - 0.00 in0.0 mm 0.10 in2.5 mm
06:20 AM 48.3°F9.1°C 48.0°F8.9°C 99% 2.3 mph WSW3.7 kmh WSW 5.8 mph9.3 kmh 29.72 in1006.4 mb - 0.00 in0.0 mm 0.10 in2.5 mm
06:30 AM 48.5°F9.2°C 48.2°F9.0°C 99% 3.5 mph NW5.6 kmh NW 5.8 mph9.3 kmh 29.71 in1006.1 mb - 0.00 in0.0 mm 0.10 in2.5 mm
06:40 AM 48.7°F9.3°C 48.4°F9.1°C 99% 4.6 mph WSW7.4 kmh WSW 8.1 mph13.0 kmh 29.71 in1006.1 mb - 0.00 in0.0 mm 0.10 in2.5 mm
06:50 AM 48.9°F9.4°C 48.7°F9.3°C 99% 4.6 mph WSW7.4 kmh WSW 8.1 mph13.0 kmh 29.71 in1006.1 mb - 0.00 in0.0 mm 0.10 in2.5 mm
07:00 AM 49.1°F9.5°C 48.8°F9.3°C 99% 5.8 mph S9.3 kmh S 9.2 mph14.8 kmh 29.71 in1006.1 mb - 0.00 in0.0 mm 0.10 in2.5 mm
07:10 AM 49.2°F9.6°C 48.9°F9.4°C 99% 5.8 mph S9.3 kmh S 11.5 mph18.5 kmh 29.71 in1006.1 mb - 0.00 in0.0 mm 0.10 in2.5 mm
07:20 AM 49.4°F9.7°C 49.1°F9.5°C 99% 8.1 mph S13.0 kmh S 12.7 mph20.4 kmh 29.71 in1006.1 mb - 0.00 in0.0 mm 0.10 in2.5 mm
07:30 AM 49.5°F9.7°C 49.2°F9.6°C 99% 6.9 mph S11.1 kmh S 8.1 mph13.0 kmh 29.70 in1005.8 mb - 0.00 in0.0 mm 0.10 in2.5 mm
07:40 AM 49.7°F9.8°C 49.4°F9.7°C 99% 5.8 mph S9.3 kmh S 9.2 mph14.8 kmh 29.70 in1005.8 mb - 0.00 in0.0 mm 0.10 in2.5 mm
07:50 AM 50.0°F10.0°C 49.7°F9.8°C 99% 5.8 mph S9.3 kmh S 5.8 mph9.3 kmh 29.70 in1005.8 mb - 0.00 in0.0 mm 0.10 in2.5 mm
08:00 AM 50.3°F10.2°C 50.0°F10.0°C 99% 5.8 mph S9.3 kmh S 8.1 mph13.0 kmh 29.70 in1005.8 mb - 0.00 in0.0 mm 0.10 in2.5 mm
08:10 AM 50.5°F10.3°C 50.2°F10.1°C 99% 4.6 mph SSE7.4 kmh SSE 6.9 mph11.1 kmh 29.70 in1005.8 mb - 0.00 in0.0 mm 0.10 in2.5 mm
08:20 AM 50.6°F10.3°C 50.3°F10.2°C 99% 8.1 mph SSE13.0 kmh SSE 11.5 mph18.5 kmh 29.69 in1005.4 mb - 0.00 in0.0 mm 0.10 in2.5 mm
08:30 AM 50.9°F10.5°C 50.6°F10.3°C 99% 4.6 mph S7.4 kmh S 8.1 mph13.0 kmh 29.69 in1005.4 mb - 0.00 in0.0 mm 0.10 in2.5 mm
08:40 AM 51.1°F10.6°C 50.8°F10.4°C 99% 5.8 mph S9.3 kmh S 6.9 mph11.1 kmh 29.70 in1005.8 mb - 0.00 in0.0 mm 0.10 in2.5 mm
08:50 AM 51.2°F10.7°C 50.9°F10.5°C 99% 5.8 mph SSE9.3 kmh SSE 8.1 mph13.0 kmh 29.70 in1005.8 mb - 0.00 in0.0 mm 0.10 in2.5 mm
09:00 AM 51.3°F10.7°C 51.0°F10.6°C 99% 5.8 mph SSE9.3 kmh SSE 11.5 mph18.5 kmh 29.70 in1005.8 mb - 0.00 in0.0 mm 0.10 in2.5 mm
09:10 AM 51.3°F10.7°C 51.0°F10.6°C 99% 3.5 mph SSW5.6 kmh SSW 5.8 mph9.3 kmh 29.70 in1005.8 mb - 0.00 in0.0 mm 0.10 in2.5 mm
09:20 AM 51.4°F10.8°C 51.1°F10.6°C 99% 1.2 mph SW1.9 kmh SW 2.3 mph3.7 kmh 29.70 in1005.8 mb - 0.00 in0.0 mm 0.10 in2.5 mm
09:30 AM 52.0°F11.1°C 51.7°F10.9°C 99% 1.2 mph SW1.9 kmh SW -- 29.70 in1005.8 mb - 0.00 in0.0 mm 0.10 in2.5 mm
09:40 AM 52.6°F11.4°C 52.3°F11.3°C 99% 1.2 mph SE1.9 kmh SE 2.3 mph3.7 kmh 29.70 in1005.8 mb - 0.00 in0.0 mm 0.10 in2.5 mm
09:50 AM 52.0°F11.1°C 51.7°F10.9°C 99% 3.5 mph SSE5.6 kmh SSE 5.8 mph9.3 kmh 29.70 in1005.8 mb - 0.00 in0.0 mm 0.10 in2.5 mm
10:00 AM 52.3°F11.3°C 52.1°F11.2°C 99% 3.5 mph W5.6 kmh W 5.8 mph9.3 kmh 29.70 in1005.8 mb - 0.00 in0.0 mm 0.10 in2.5 mm
10:10 AM 53.3°F11.8°C 53.0°F11.7°C 99% 2.3 mph WSW3.7 kmh WSW 6.9 mph11.1 kmh 29.70 in1005.8 mb - 0.00 in0.0 mm 0.10 in2.5 mm
10:20 AM 53.6°F12.0°C 53.4°F11.9°C 99% 3.5 mph W5.6 kmh W 6.9 mph11.1 kmh 29.70 in1005.8 mb - 0.00 in0.0 mm 0.10 in2.5 mm
10:30 AM 53.6°F12.0°C 53.3°F11.8°C 99% 4.6 mph SE7.4 kmh SE 5.8 mph9.3 kmh 29.70 in1005.8 mb - 0.00 in0.0 mm 0.10 in2.5 mm
10:40 AM 53.5°F11.9°C 53.2°F11.8°C 99% 3.5 mph S5.6 kmh S 8.1 mph13.0 kmh 29.70 in1005.8 mb - 0.00 in0.0 mm 0.10 in2.5 mm
10:50 AM 53.1°F11.7°C 52.8°F11.6°C 99% 2.3 mph WSW3.7 kmh WSW 5.8 mph9.3 kmh 29.70 in1005.8 mb - 0.00 in0.0 mm 0.10 in2.5 mm
11:00 AM 53.1°F11.7°C 52.8°F11.6°C 99% 2.3 mph WSW3.7 kmh WSW 8.1 mph13.0 kmh 29.69 in1005.4 mb - 0.00 in0.0 mm 0.10 in2.5 mm
11:10 AM 53.2°F11.8°C 52.9°F11.6°C 99% 1.2 mph WSW1.9 kmh WSW 6.9 mph11.1 kmh 29.69 in1005.4 mb - 0.00 in0.0 mm 0.10 in2.5 mm
11:20 AM 53.2°F11.8°C 52.9°F11.6°C 99% 6.9 mph WNW11.1 kmh WNW 13.8 mph22.2 kmh 29.69 in1005.4 mb - 0.00 in0.0 mm 0.10 in2.5 mm
11:30 AM 53.3°F11.8°C 53.0°F11.7°C 99% 5.8 mph SW9.3 kmh SW 9.2 mph14.8 kmh 29.68 in1005.1 mb - 0.00 in0.0 mm 0.10 in2.5 mm
11:40 AM 53.5°F11.9°C 53.2°F11.8°C 99% 8.1 mph WSW13.0 kmh WSW 13.8 mph22.2 kmh 29.69 in1005.4 mb - 0.00 in0.0 mm 0.10 in2.5 mm
11:50 AM 53.6°F12.0°C 53.3°F11.8°C 99% 6.9 mph W11.1 kmh W 11.5 mph18.5 kmh 29.69 in1005.4 mb - 0.00 in0.0 mm 0.10 in2.5 mm
12:00 PM 53.5°F11.9°C 53.2°F11.8°C 99% 9.2 mph W14.8 kmh W 13.8 mph22.2 kmh 29.68 in1005.1 mb - 0.01 in0.3 mm 0.11 in2.8 mm
12:10 PM 53.2°F11.8°C 52.9°F11.6°C 99% 8.1 mph W13.0 kmh W 13.8 mph22.2 kmh 29.68 in1005.1 mb - 0.00 in0.0 mm 0.11 in2.8 mm
12:20 PM 53.0°F11.7°C 52.7°F11.5°C 99% 6.9 mph W11.1 kmh W 13.8 mph22.2 kmh 29.69 in1005.4 mb - 0.00 in0.0 mm 0.11 in2.8 mm
12:30 PM 53.1°F11.7°C 52.8°F11.6°C 99% 6.9 mph WSW11.1 kmh WSW 11.5 mph18.5 kmh 29.68 in1005.1 mb - 0.00 in0.0 mm 0.11 in2.8 mm
12:40 PM 53.0°F11.7°C 52.7°F11.5°C 99% 5.8 mph WNW9.3 kmh WNW 11.5 mph18.5 kmh 29.68 in1005.1 mb - 0.00 in0.0 mm 0.11 in2.8 mm
12:50 PM 52.9°F11.6°C 52.6°F11.4°C 99% 6.9 mph W11.1 kmh W 13.8 mph22.2 kmh 29.68 in1005.1 mb - 0.01 in0.3 mm 0.12 in3.0 mm
01:00 PM 52.9°F11.6°C 52.6°F11.4°C 99% 5.8 mph WNW9.3 kmh WNW 8.1 mph13.0 kmh 29.68 in1005.1 mb - 0.02 in0.5 mm 0.14 in3.6 mm
01:10 PM 53.0°F11.7°C 52.7°F11.5°C 99% 3.5 mph W5.6 kmh W 8.1 mph13.0 kmh 29.68 in1005.1 mb - 0.01 in0.3 mm 0.15 in3.8 mm
01:20 PM 53.1°F11.7°C 52.8°F11.6°C 99% 6.9 mph WSW11.1 kmh WSW 11.5 mph18.5 kmh 29.68 in1005.1 mb - 0.00 in0.0 mm 0.15 in3.8 mm
01:30 PM 53.2°F11.8°C 52.9°F11.6°C 99% 3.5 mph W5.6 kmh W 8.1 mph13.0 kmh 29.67 in1004.7 mb - 0.01 in0.3 mm 0.16 in4.1 mm
01:40 PM 53.3°F11.8°C 53.0°F11.7°C 99% 6.9 mph W11.1 kmh W 13.8 mph22.2 kmh 29.68 in1005.1 mb - 0.00 in0.0 mm 0.16 in4.1 mm
01:50 PM 53.6°F12.0°C 53.3°F11.8°C 99% 5.8 mph W9.3 kmh W 9.2 mph14.8 kmh 29.67 in1004.7 mb - 0.01 in0.3 mm 0.17 in4.3 mm
02:00 PM 53.6°F12.0°C 53.3°F11.8°C 99% 8.1 mph W13.0 kmh W 12.7 mph20.4 kmh 29.67 in1004.7 mb - 0.00 in0.0 mm 0.17 in4.3 mm
02:10 PM 53.6°F12.0°C 53.3°F11.8°C 99% 8.1 mph W13.0 kmh W 11.5 mph18.5 kmh 29.65 in1004.1 mb - 0.00 in0.0 mm 0.17 in4.3 mm
02:20 PM 53.8°F12.1°C 53.5°F11.9°C 99% 4.6 mph W7.4 kmh W 6.9 mph11.1 kmh 29.65 in1004.1 mb - 0.00 in0.0 mm 0.17 in4.3 mm
02:30 PM 54.1°F12.3°C 53.8°F12.1°C 99% 4.6 mph W7.4 kmh W 5.8 mph9.3 kmh 29.65 in1004.1 mb - 0.00 in0.0 mm 0.17 in4.3 mm
02:40 PM 54.7°F12.6°C 54.4°F12.4°C 99% 3.5 mph SW5.6 kmh SW 8.1 mph13.0 kmh 29.65 in1004.1 mb - 0.00 in0.0 mm 0.17 in4.3 mm
02:50 PM 54.7°F12.6°C 54.4°F12.4°C 99% 4.6 mph WSW7.4 kmh WSW 6.9 mph11.1 kmh 29.65 in1004.1 mb - 0.00 in0.0 mm 0.17 in4.3 mm
03:00 PM 55.1°F12.8°C 54.8°F12.7°C 99% 2.3 mph W3.7 kmh W 5.8 mph9.3 kmh 29.65 in1004.1 mb - 0.00 in0.0 mm 0.17 in4.3 mm
03:10 PM 55.4°F13.0°C 55.1°F12.8°C 99% 1.2 mph WSW1.9 kmh WSW 5.8 mph9.3 kmh 29.65 in1004.1 mb - 0.00 in0.0 mm 0.17 in4.3 mm
03:20 PM 55.8°F13.2°C 55.5°F13.1°C 99% 2.3 mph W3.7 kmh W 2.3 mph3.7 kmh 29.65 in1004.1 mb - 0.00 in0.0 mm 0.17 in4.3 mm
03:30 PM 55.5°F13.1°C 55.3°F12.9°C 99% 3.5 mph SSE5.6 kmh SSE 5.8 mph9.3 kmh 29.65 in1004.1 mb - 0.00 in0.0 mm 0.17 in4.3 mm
03:40 PM 55.9°F13.3°C 55.6°F13.1°C 99% 6.9 mph WNW11.1 kmh WNW 11.5 mph18.5 kmh 29.64 in1003.7 mb - 0.00 in0.0 mm 0.17 in4.3 mm
03:50 PM 57.8°F14.3°C 55.8°F13.2°C 93% 10.4 mph W16.7 kmh W 18.4 mph29.6 kmh 29.64 in1003.7 mb - 0.00 in0.0 mm 0.17 in4.3 mm
04:00 PM 57.8°F14.3°C 55.5°F13.1°C 92% 8.1 mph WNW13.0 kmh WNW 16.1 mph25.9 kmh 29.64 in1003.7 mb - 0.00 in0.0 mm 0.17 in4.3 mm
04:10 PM 57.1°F13.9°C 55.4°F13.0°C 94% 11.5 mph NW18.5 kmh NW 16.1 mph25.9 kmh 29.65 in1004.1 mb - 0.00 in0.0 mm 0.17 in4.3 mm
04:20 PM 55.9°F13.3°C 54.2°F12.3°C 94% 9.2 mph NW14.8 kmh NW 13.8 mph22.2 kmh 29.66 in1004.4 mb - 0.00 in0.0 mm 0.17 in4.3 mm
04:30 PM 55.2°F12.9°C 52.9°F11.6°C 92% 10.4 mph WNW16.7 kmh WNW 16.1 mph25.9 kmh 29.67 in1004.7 mb - 0.00 in0.0 mm 0.17 in4.3 mm
04:40 PM 54.6°F12.6°C 51.2°F10.7°C 88% 11.5 mph W18.5 kmh W 17.3 mph27.8 kmh 29.67 in1004.7 mb - 0.00 in0.0 mm 0.17 in4.3 mm
04:50 PM 54.2°F12.3°C 51.0°F10.6°C 89% 6.9 mph W11.1 kmh W 13.8 mph22.2 kmh 29.68 in1005.1 mb - 0.00 in0.0 mm 0.17 in4.3 mm
05:00 PM 53.6°F12.0°C 50.1°F10.1°C 88% 6.9 mph WNW11.1 kmh WNW 13.8 mph22.2 kmh 29.68 in1005.1 mb - 0.00 in0.0 mm 0.17 in4.3 mm
05:10 PM 53.2°F11.8°C 49.4°F9.7°C 87% 6.9 mph WNW11.1 kmh WNW 12.7 mph20.4 kmh 29.68 in1005.1 mb - 0.00 in0.0 mm 0.17 in4.3 mm
05:20 PM 52.9°F11.6°C 49.7°F9.8°C 89% 5.8 mph WNW9.3 kmh WNW 9.2 mph14.8 kmh 29.69 in1005.4 mb - 0.00 in0.0 mm 0.17 in4.3 mm
05:30 PM 52.6°F11.4°C 49.4°F9.7°C 89% 4.6 mph WNW7.4 kmh WNW 12.7 mph20.4 kmh 29.69 in1005.4 mb - 0.00 in0.0 mm 0.17 in4.3 mm
05:40 PM 52.4°F11.3°C 48.6°F9.2°C 87% 8.1 mph W13.0 kmh W 19.6 mph31.5 kmh 29.70 in1005.8 mb - 0.00 in0.0 mm 0.17 in4.3 mm
05:50 PM 52.0°F11.1°C 48.3°F9.1°C 87% 4.6 mph W7.4 kmh W 6.9 mph11.1 kmh 29.70 in1005.8 mb - 0.00 in0.0 mm 0.17 in4.3 mm
06:00 PM 51.8°F11.0°C 47.4°F8.6°C 85% 5.8 mph W9.3 kmh W 8.1 mph13.0 kmh 29.71 in1006.1 mb - 0.00 in0.0 mm 0.17 in4.3 mm
06:10 PM 51.8°F11.0°C 47.4°F8.6°C 85% 3.5 mph WNW5.6 kmh WNW 5.8 mph9.3 kmh 29.72 in1006.4 mb - 0.00 in0.0 mm 0.17 in4.3 mm
06:20 PM 51.7°F10.9°C 48.3°F9.1°C 88% 3.5 mph WNW5.6 kmh WNW 5.8 mph9.3 kmh 29.72 in1006.4 mb - 0.00 in0.0 mm 0.17 in4.3 mm
06:30 PM 51.5°F10.8°C 47.1°F8.4°C 85% 5.8 mph WSW9.3 kmh WSW 8.1 mph13.0 kmh 29.72 in1006.4 mb - 0.00 in0.0 mm 0.17 in4.3 mm
06:40 PM 51.3°F10.7°C 47.3°F8.5°C 86% 3.5 mph SSW5.6 kmh SSW 6.9 mph11.1 kmh 29.73 in1006.8 mb - 0.00 in0.0 mm 0.17 in4.3 mm
06:50 PM 51.2°F10.7°C 47.1°F8.4°C 86% 3.5 mph W5.6 kmh W 5.8 mph9.3 kmh 29.73 in1006.8 mb - 0.00 in0.0 mm 0.17 in4.3 mm
07:00 PM 51.2°F10.7°C 47.5°F8.6°C 87% 1.2 mph WNW1.9 kmh WNW 2.3 mph3.7 kmh 29.73 in1006.8 mb - 0.00 in0.0 mm 0.17 in4.3 mm
07:10 PM 51.3°F10.7°C 46.6°F8.1°C 84% 9.2 mph WNW14.8 kmh WNW 13.8 mph22.2 kmh 29.73 in1006.8 mb - 0.00 in0.0 mm 0.17 in4.3 mm
07:20 PM 51.4°F10.8°C 45.8°F7.7°C 81% 10.4 mph WNW16.7 kmh WNW 13.8 mph22.2 kmh 29.74 in1007.1 mb - 0.00 in0.0 mm 0.17 in4.3 mm
07:30 PM 51.4°F10.8°C 45.4°F7.4°C 80% 11.5 mph WNW18.5 kmh WNW 15.0 mph24.1 kmh 29.73 in1006.8 mb - 0.00 in0.0 mm 0.17 in4.3 mm
07:40 PM 51.3°F10.7°C 45.3°F7.4°C 80% 9.2 mph W14.8 kmh W 26.5 mph42.6 kmh 29.74 in1007.1 mb - 0.00 in0.0 mm 0.17 in4.3 mm
07:50 PM 51.3°F10.7°C 45.0°F7.2°C 79% 8.1 mph W13.0 kmh W 12.7 mph20.4 kmh 29.73 in1006.8 mb - 0.00 in0.0 mm 0.17 in4.3 mm
08:00 PM 51.3°F10.7°C 45.0°F7.2°C 79% 13.8 mph NW22.2 kmh NW 21.9 mph35.2 kmh 29.73 in1006.8 mb - 0.00 in0.0 mm 0.17 in4.3 mm
08:10 PM 51.2°F10.7°C 44.2°F6.8°C 77% 9.2 mph W14.8 kmh W 12.7 mph20.4 kmh 29.73 in1006.8 mb - 0.00 in0.0 mm 0.17 in4.3 mm
08:20 PM 51.1°F10.6°C 44.1°F6.7°C 77% 9.2 mph WNW14.8 kmh WNW 18.4 mph29.6 kmh 29.73 in1006.8 mb - 0.00 in0.0 mm 0.17 in4.3 mm
08:30 PM 51.0°F10.6°C 43.7°F6.5°C 76% 12.7 mph WNW20.4 kmh WNW 18.4 mph29.6 kmh 29.73 in1006.8 mb - 0.00 in0.0 mm 0.17 in4.3 mm
08:40 PM 50.8°F10.4°C 43.8°F6.6°C 77% 9.2 mph W14.8 kmh W 15.0 mph24.1 kmh 29.72 in1006.4 mb - 0.00 in0.0 mm 0.17 in4.3 mm
08:50 PM 50.6°F10.3°C 43.7°F6.5°C 77% 10.4 mph W16.7 kmh W 16.1 mph25.9 kmh 29.73 in1006.8 mb - 0.00 in0.0 mm 0.17 in4.3 mm
09:00 PM 50.6°F10.3°C 43.3°F6.3°C 76% 5.8 mph WNW9.3 kmh WNW 18.4 mph29.6 kmh 29.73 in1006.8 mb - 0.00 in0.0 mm 0.17 in4.3 mm
09:10 PM 50.5°F10.3°C 43.2°F6.2°C 76% 5.8 mph W9.3 kmh W 9.2 mph14.8 kmh 29.74 in1007.1 mb - 0.00 in0.0 mm 0.17 in4.3 mm
09:20 PM 50.3°F10.2°C 43.4°F6.3°C 77% 1.2 mph WNW1.9 kmh WNW 4.6 mph7.4 kmh 29.74 in1007.1 mb - 0.00 in0.0 mm 0.17 in4.3 mm
09:30 PM 50.3°F10.2°C 43.4°F6.3°C 77% 4.6 mph WNW7.4 kmh WNW 5.8 mph9.3 kmh 29.75 in1007.5 mb - 0.00 in0.0 mm 0.17 in4.3 mm
09:40 PM 50.5°F10.3°C 43.2°F6.2°C 76% 6.9 mph W11.1 kmh W 13.8 mph22.2 kmh 29.75 in1007.5 mb - 0.00 in0.0 mm 0.17 in4.3 mm
09:50 PM 50.5°F10.3°C 43.6°F6.4°C 77% 4.6 mph WSW7.4 kmh WSW 5.8 mph9.3 kmh 29.75 in1007.5 mb - 0.00 in0.0 mm 0.17 in4.3 mm
10:00 PM 50.4°F10.2°C 43.5°F6.4°C 77% 2.3 mph W3.7 kmh W 4.6 mph7.4 kmh 29.76 in1007.8 mb - 0.00 in0.0 mm 0.17 in4.3 mm
10:10 PM 50.2°F10.1°C 43.3°F6.3°C 77% 1.2 mph SW1.9 kmh SW 4.6 mph7.4 kmh 29.75 in1007.5 mb - 0.00 in0.0 mm 0.17 in4.3 mm
10:20 PM 50.0°F10.0°C 43.1°F6.2°C 77% 2.3 mph SSW3.7 kmh SSW 6.9 mph11.1 kmh 29.76 in1007.8 mb - 0.00 in0.0 mm 0.17 in4.3 mm
10:30 PM 49.8°F9.9°C 42.9°F6.1°C 77% 4.6 mph SW7.4 kmh SW 8.1 mph13.0 kmh 29.75 in1007.5 mb - 0.00 in0.0 mm 0.17 in4.3 mm
10:40 PM 49.8°F9.9°C 42.9°F6.1°C 77% 4.6 mph WNW7.4 kmh WNW 6.9 mph11.1 kmh 29.75 in1007.5 mb - 0.00 in0.0 mm 0.17 in4.3 mm
10:50 PM 49.9°F9.9°C 42.7°F5.9°C 76% 1.2 mph S1.9 kmh S 2.3 mph3.7 kmh 29.75 in1007.5 mb - 0.00 in0.0 mm 0.17 in4.3 mm
11:00 PM 49.9°F9.9°C 42.6°F5.9°C 76% 3.5 mph W5.6 kmh W 9.2 mph14.8 kmh 29.75 in1007.5 mb - 0.00 in0.0 mm 0.17 in4.3 mm
11:10 PM 50.0°F10.0°C 42.4°F5.8°C 75% 2.3 mph W3.7 kmh W 6.9 mph11.1 kmh 29.74 in1007.1 mb - 0.00 in0.0 mm 0.17 in4.3 mm
11:20 PM 50.1°F10.1°C 42.5°F5.8°C 75% 6.9 mph W11.1 kmh W 11.5 mph18.5 kmh 29.73 in1006.8 mb - 0.00 in0.0 mm 0.17 in4.3 mm
11:30 PM 50.0°F10.0°C 42.4°F5.8°C 75% 6.9 mph W11.1 kmh W 11.5 mph18.5 kmh 29.74 in1007.1 mb - 0.00 in0.0 mm 0.17 in4.3 mm
11:40 PM 50.0°F10.0°C 42.7°F5.9°C 76% 6.9 mph WNW11.1 kmh WNW 10.4 mph16.7 kmh 29.73 in1006.8 mb - 0.00 in0.0 mm 0.17 in4.3 mm
11:50 PM 50.0°F10.0°C 42.4°F5.8°C 75% 9.2 mph WNW14.8 kmh WNW 15.0 mph24.1 kmh 29.74 in1007.1 mb - 0.00 in0.0 mm 0.17 in4.3 mm